Time;durP1;ratioP1;P1;durP2;ratioP2;P2;SDS_P1;SDS_P2;PMS_P1;PMS_P2;Temp;Humidity;BMP_temperature;BMP_pressure;BME280_temperature;BME280_humidity;BME280_pressure;Samples;Min_cycle;Max_cycle;Signal;HPM_P1;HPM_P2
2023/11/05 00:00:37;;;;;;;9.53;2.90;;;10.60;71.30;;;;;;5010889;28;20482;-73
2023/11/05 00:03:02;;;;;;;12.45;3.55;;;10.70;70.60;;;;;;5011185;28;20887;-73
2023/11/05 00:05:28;;;;;;;8.02;2.92;;;10.70;70.90;;;;;;5011255;28;20404;-71
2023/11/05 00:07:54;;;;;;;12.43;3.30;;;10.80;69.90;;;;;;5010206;28;20427;-72
2023/11/05 00:10:19;;;;;;;8.30;2.90;;;10.80;69.50;;;;;;5010706;28;20388;-71
2023/11/05 00:12:45;;;;;;;7.33;2.43;;;10.90;68.70;;;;;;5011134;28;20855;-71
2023/11/05 00:15:11;;;;;;;12.38;3.50;;;10.80;67.90;;;;;;5010986;28;20868;-71
2023/11/05 00:17:36;;;;;;;9.90;3.10;;;10.90;68.80;;;;;;5011029;28;20800;-70
2023/11/05 00:20:07;;;;;;;7.33;2.63;;;10.90;67.90;;;;;;5011089;28;20392;-71
2023/11/05 00:22:33;;;;;;;6.35;2.85;;;11.00;66.10;;;;;;5010983;28;20411;-70
2023/11/05 00:24:59;;;;;;;9.02;2.75;;;10.90;67.20;;;;;;5010729;28;20400;-71
2023/11/05 00:27:24;;;;;;;9.25;3.38;;;10.90;66.20;;;;;;5011016;28;20416;-70
2023/11/05 00:29:50;;;;;;;9.70;3.00;;;10.90;67.70;;;;;;5010822;28;20420;-71
2023/11/05 00:32:15;;;;;;;6.50;2.88;;;10.90;66.80;;;;;;5010565;28;20480;-71
2023/11/05 00:34:41;;;;;;;10.88;2.80;;;10.90;67.00;;;;;;5010295;28;20380;-72
2023/11/05 00:37:07;;;;;;;8.13;2.70;;;10.90;66.50;;;;;;5010219;28;20464;-70
2023/11/05 00:39:33;;;;;;;8.48;2.90;;;10.90;67.70;;;;;;5010211;28;20479;-71
2023/11/05 00:41:59;;;;;;;9.90;2.20;;;10.90;66.80;;;;;;5009113;28;20875;-72
2023/11/05 00:44:24;;;;;;;11.47;2.90;;;10.80;67.50;;;;;;5011235;28;20425;-73
2023/11/05 00:46:50;;;;;;;9.37;2.50;;;10.80;67.50;;;;;;5012089;28;20743;-72
2023/11/05 00:49:15;;;;;;;8.70;2.80;;;10.80;68.60;;;;;;5011305;28;20772;-73
2023/11/05 00:51:41;;;;;;;8.80;2.80;;;10.80;68.10;;;;;;5010851;28;20876;-71
2023/11/05 00:54:06;;;;;;;10.83;2.80;;;10.90;67.30;;;;;;5010354;28;20776;-72
2023/11/05 00:56:32;;;;;;;10.00;2.50;;;11.00;66.80;;;;;;5010255;28;20894;-71
2023/11/05 00:58:57;;;;;;;9.07;2.40;;;11.00;67.30;;;;;;5010345;28;20391;-71
2023/11/05 01:01:23;;;;;;;10.00;2.90;;;11.10;67.80;;;;;;5010220;28;20875;-72
2023/11/05 01:03:49;;;;;;;9.00;2.65;;;11.10;67.10;;;;;;5010194;28;20926;-72
2023/11/05 01:06:14;;;;;;;9.20;2.22;;;11.10;68.50;;;;;;5010136;28;20389;-72
2023/11/05 01:08:40;;;;;;;11.45;2.92;;;11.10;70.00;;;;;;5013519;28;20499;-71
2023/11/05 01:11:05;;;;;;;13.50;3.47;;;11.10;71.60;;;;;;5013581;28;20392;-71
2023/11/05 01:13:31;;;;;;;16.60;2.92;;;11.00;74.80;;;;;;5013634;28;20918;-72
2023/11/05 01:15:57;;;;;;;13.73;2.73;;;11.00;74.50;;;;;;5013473;28;20401;-71
2023/11/05 01:18:23;;;;;;;11.10;3.13;;;11.00;74.90;;;;;;5013433;28;20389;-71
2023/11/05 01:20:49;;;;;;;8.05;2.30;;;11.00;76.00;;;;;;5012717;28;20851;-72
2023/11/05 01:23:15;;;;;;;9.53;2.60;;;11.10;75.90;;;;;;5013693;28;20545;-72
2023/11/05 01:25:41;;;;;;;11.30;2.67;;;11.00;78.00;;;;;;5013912;28;20420;-72
2023/11/05 01:28:06;;;;;;;8.90;2.63;;;10.90;80.30;;;;;;5014443;28;20401;-71
2023/11/05 01:30:32;;;;;;;9.15;2.72;;;10.90;80.40;;;;;;5031843;28;20406;-69
2023/11/05 01:32:57;;;;;;;10.90;2.67;;;10.90;81.20;;;;;;5034799;28;20389;-71
2023/11/05 01:35:23;;;;;;;15.90;3.77;;;10.90;80.30;;;;;;5023435;28;20619;-71
2023/11/05 01:37:49;;;;;;;10.23;2.78;;;10.80;82.20;;;;;;5012933;28;20400;-70
2023/11/05 01:40:15;;;;;;;13.33;2.80;;;10.90;80.10;;;;;;5013026;28;20392;-70
2023/11/05 01:42:40;;;;;;;12.20;2.67;;;10.90;79.70;;;;;;5012727;28;20400;-70
2023/11/05 01:45:06;;;;;;;8.63;2.70;;;10.90;80.00;;;;;;5012841;28;20881;-71
2023/11/05 01:47:33;;;;;;;11.55;2.55;;;10.80;82.20;;;;;;5011520;28;20447;-73
2023/11/05 01:49:58;;;;;;;10.40;2.67;;;10.80;82.00;;;;;;5013011;28;20389;-70
2023/11/05 01:52:25;;;;;;;12.00;2.67;;;10.80;82.40;;;;;;5012808;28;20484;-70
2023/11/05 01:54:50;;;;;;;12.82;2.60;;;10.70;83.30;;;;;;5012929;28;20467;-70
2023/11/05 01:57:17;;;;;;;6.83;2.30;;;10.70;83.60;;;;;;5012853;28;20891;-70
2023/11/05 01:59:43;;;;;;;11.20;2.70;;;10.70;83.00;;;;;;5012811;28;20737;-70
2023/11/05 02:02:09;;;;;;;14.50;2.85;;;10.70;84.60;;;;;;5012801;28;20930;-71
2023/11/05 02:04:36;;;;;;;13.63;3.00;;;10.70;84.30;;;;;;5012637;28;20389;-71
2023/11/05 02:07:01;;;;;;;12.45;2.90;;;10.70;85.30;;;;;;5012790;28;20424;-72
2023/11/05 02:09:27;;;;;;;9.68;2.55;;;10.70;84.80;;;;;;5012786;28;20510;-71
2023/11/05 02:11:52;;;;;;;10.73;3.00;;;10.60;86.30;;;;;;5012814;28;20460;-71
2023/11/05 02:14:18;;;;;;;12.10;2.90;;;10.70;85.30;;;;;;5012898;28;20388;-72
2023/11/05 02:16:44;;;;;;;9.23;2.50;;;10.70;85.50;;;;;;5012743;28;20443;-72
2023/11/05 02:19:09;;;;;;;14.90;3.00;;;10.70;85.50;;;;;;5012000;28;20918;-72
2023/11/05 02:21:49;;;;;;;10.23;2.90;;;10.70;84.10;;;;;;5012679;28;20472;-72
2023/11/05 02:24:15;;;;;;;9.88;2.80;;;10.80;84.30;;;;;;5012459;28;20403;-72
2023/11/05 02:26:41;;;;;;;16.67;2.70;;;10.80;84.50;;;;;;5011206;28;20385;-70
2023/11/05 02:29:06;;;;;;;10.07;2.30;;;10.80;82.50;;;;;;5012427;28;21035;-72
2023/11/05 02:31:32;;;;;;;9.70;3.03;;;10.80;83.80;;;;;;5012369;28;20747;-72
2023/11/05 02:33:57;;;;;;;14.67;2.60;;;10.80;84.60;;;;;;5012213;28;20389;-71
2023/11/05 02:36:23;;;;;;;9.37;2.50;;;10.70;85.60;;;;;;5011976;28;20385;-72
2023/11/05 02:38:48;;;;;;;9.90;2.13;;;10.70;85.10;;;;;;5012304;28;20450;-71
2023/11/05 02:41:14;;;;;;;8.98;2.53;;;10.70;84.30;;;;;;5012465;28;20453;-71
2023/11/05 02:43:40;;;;;;;7.13;2.30;;;10.80;82.20;;;;;;5011831;28;20416;-71
2023/11/05 02:46:06;;;;;;;9.40;2.33;;;10.80;83.20;;;;;;5011993;28;20423;-71
2023/11/05 02:48:35;;;;;;;12.27;2.55;;;10.70;85.00;;;;;;5011749;28;20504;-73
2023/11/05 02:51:01;;;;;;;12.45;2.63;;;10.70;85.60;;;;;;5012002;28;20392;-72
2023/11/05 02:53:26;;;;;;;11.63;2.73;;;10.70;85.60;;;;;;5011816;28;20729;-72
2023/11/05 02:55:52;;;;;;;13.85;2.00;;;10.80;86.40;;;;;;5010571;28;20796;-72
2023/11/05 02:58:18;;;;;;;9.23;2.40;;;10.90;84.30;;;;;;5011911;28;20380;-71
2023/11/05 03:00:44;;;;;;;7.93;2.17;;;10.80;83.90;;;;;;5011709;28;20393;-71
2023/11/05 03:03:11;;;;;;;9.35;2.22;;;10.90;83.80;;;;;;5011569;28;20771;-71
2023/11/05 03:05:37;;;;;;;9.07;2.20;;;11.00;82.80;;;;;;5011696;28;20393;-72
2023/11/05 03:08:03;;;;;;;9.05;2.70;;;10.90;83.80;;;;;;5011333;28;20459;-72
2023/11/05 03:10:28;;;;;;;13.93;2.47;;;10.90;83.80;;;;;;5011562;28;20417;-72
2023/11/05 03:12:54;;;;;;;14.43;2.80;;;10.90;83.10;;;;;;5011620;28;20396;-71
2023/11/05 03:15:19;;;;;;;5.47;1.90;;;10.90;84.20;;;;;;5011551;28;20464;-70
2023/11/05 03:17:45;;;;;;;8.03;2.10;;;10.90;83.20;;;;;;5012120;28;20393;-74
2023/11/05 03:20:11;;;;;;;7.10;2.20;;;10.80;84.50;;;;;;5011975;28;20747;-71
2023/11/05 03:22:37;;;;;;;6.70;2.00;;;10.90;82.10;;;;;;5012530;28;20401;-73
2023/11/05 03:25:04;;;;;;;10.32;2.45;;;11.00;80.20;;;;;;5012440;28;20392;-72
2023/11/05 03:27:29;;;;;;;10.55;2.47;;;11.00;80.30;;;;;;5011946;28;20439;-73
2023/11/05 03:29:55;;;;;;;8.20;2.10;;;11.00;81.50;;;;;;5011857;28;20743;-72
2023/11/05 03:32:21;;;;;;;10.20;2.20;;;11.00;82.50;;;;;;5012380;28;20864;-72
2023/11/05 03:34:47;;;;;;;10.77;2.30;;;11.00;83.00;;;;;;5011875;28;20436;-72
2023/11/05 03:37:12;;;;;;;4.67;1.50;;;11.00;82.70;;;;;;5013126;28;20751;-72
2023/11/05 03:39:38;;;;;;;9.27;2.40;;;11.20;80.50;;;;;;5011785;28;20400;-72
2023/11/05 03:42:04;;;;;;;8.15;2.35;;;11.10;81.60;;;;;;5011041;28;20458;-72
2023/11/05 03:44:29;;;;;;;7.35;2.13;;;11.00;82.90;;;;;;5096326;23;20482;-74
2023/11/05 03:46:56;;;;;;;14.93;2.90;;;11.00;82.70;;;;;;5096487;28;20437;-73
2023/11/05 03:49:22;;;;;;;9.75;2.45;;;11.00;82.60;;;;;;5091801;28;20405;-72
2023/11/05 03:51:48;;;;;;;8.55;2.20;;;11.10;81.90;;;;;;5074125;28;21062;-73
2023/11/05 03:54:13;;;;;;;11.30;2.10;;;11.00;82.10;;;;;;5092264;28;20386;-73
2023/11/05 03:56:40;;;;;;;8.40;2.13;;;11.00;82.00;;;;;;5074165;28;20370;-73
2023/11/05 03:59:06;;;;;;;14.32;2.80;;;11.00;81.10;;;;;;5094850;28;20382;-74
2023/11/05 04:01:31;;;;;;;10.77;2.15;;;11.00;81.80;;;;;;5096718;28;20384;-74
2023/11/05 04:03:57;;;;;;;15.17;2.80;;;10.90;82.50;;;;;;5094707;28;20472;-73
2023/11/05 04:06:22;;;;;;;6.97;2.50;;;10.80;83.70;;;;;;5091116;28;20386;-74
2023/11/05 04:08:48;;;;;;;6.35;2.20;;;10.70;85.50;;;;;;5090639;28;20398;-74
2023/11/05 04:11:14;;;;;;;9.40;2.20;;;10.70;86.30;;;;;;5090871;28;20382;-72
2023/11/05 04:13:39;;;;;;;5.03;1.75;;;10.80;85.70;;;;;;5090995;28;20381;-73
2023/11/05 04:16:06;;;;;;;10.68;1.95;;;10.80;84.80;;;;;;5091413;28;20872;-76
2023/11/05 04:18:31;;;;;;;5.65;2.13;;;10.60;86.20;;;;;;5091314;28;20837;-74
2023/11/05 04:20:57;;;;;;;6.80;1.70;;;10.60;87.40;;;;;;5092220;28;20465;-72
2023/11/05 04:23:22;;;;;;;4.57;1.90;;;10.60;87.40;;;;;;5091536;28;20386;-75
2023/11/05 04:25:48;;;;;;;7.78;2.00;;;10.70;86.70;;;;;;5092006;28;20717;-74
2023/11/05 04:28:13;;;;;;;5.20;1.60;;;10.70;85.80;;;;;;5092537;28;20393;-73
2023/11/05 04:30:39;;;;;;;8.38;1.83;;;10.80;85.30;;;;;;5092950;28;20917;-72
2023/11/05 04:33:04;;;;;;;7.70;1.70;;;10.90;82.30;;;;;;5102996;28;20398;-71
2023/11/05 04:35:31;;;;;;;5.50;1.63;;;11.00;81.70;;;;;;5101671;28;20377;-73
2023/11/05 04:37:56;;;;;;;5.22;1.65;;;11.10;80.50;;;;;;5076644;28;20418;-72
2023/11/05 04:40:22;;;;;;;5.20;1.60;;;11.10;79.60;;;;;;5090730;28;20428;-73
2023/11/05 04:42:49;;;;;;;3.70;1.70;;;11.20;79.00;;;;;;5093150;28;20461;-74
2023/11/05 04:45:15;;;;;;;6.40;1.70;;;11.20;79.00;;;;;;5094400;28;20752;-72
2023/11/05 04:47:40;;;;;;;6.20;1.70;;;11.20;77.70;;;;;;5094530;28;20476;-74
2023/11/05 04:50:07;;;;;;;3.67;1.50;;;11.20;78.90;;;;;;5076079;28;20536;-71
2023/11/05 04:52:33;;;;;;;5.22;1.50;;;11.20;79.70;;;;;;5094200;28;20388;-73
2023/11/05 04:55:00;;;;;;;6.75;1.80;;;11.20;80.50;;;;;;5094610;28;20460;-73
2023/11/05 04:57:26;;;;;;;5.90;1.40;;;11.30;79.60;;;;;;5094317;28;20744;-72
2023/11/05 04:59:52;;;;;;;3.00;1.50;;;11.30;78.50;;;;;;5094686;28;20740;-73
2023/11/05 05:02:17;;;;;;;6.18;1.60;;;11.20;79.40;;;;;;5094559;28;20380;-74
2023/11/05 05:04:43;;;;;;;4.30;1.50;;;11.20;80.30;;;;;;5095144;28;20389;-74
2023/11/05 05:07:08;;;;;;;6.47;1.50;;;11.20;80.40;;;;;;5095465;28;20377;-73
2023/11/05 05:09:35;;;;;;;3.70;1.60;;;11.20;81.00;;;;;;5094666;28;20401;-73
2023/11/05 05:12:01;;;;;;;4.82;1.42;;;11.30;79.50;;;;;;5096299;28;20382;-73
2023/11/05 05:14:26;;;;;;;2.38;1.10;;;11.30;79.70;;;;;;5080634;28;20393;-73
2023/11/05 05:16:53;;;;;;;5.40;1.40;;;11.20;80.90;;;;;;5102972;28;20847;-73
2023/11/05 05:19:19;;;;;;;3.28;1.40;;;11.20;79.90;;;;;;5094122;28;20392;-72
2023/11/05 05:21:45;;;;;;;5.78;1.20;;;11.30;78.10;;;;;;5094533;28;20740;-72
2023/11/05 05:24:12;;;;;;;4.38;1.30;;;11.30;79.50;;;;;;5094389;28;20765;-73
2023/11/05 05:26:38;;;;;;;1.40;1.00;;;11.30;80.50;;;;;;5094581;28;20839;-73
2023/11/05 05:29:04;;;;;;;3.10;1.10;;;11.40;79.40;;;;;;5094509;28;20398;-74
2023/11/05 05:31:30;;;;;;;2.70;1.30;;;11.40;79.60;;;;;;5094131;28;20384;-73
2023/11/05 05:33:56;;;;;;;5.07;1.00;;;11.30;81.30;;;;;;5094320;28;20382;-72
2023/11/05 05:36:22;;;;;;;2.30;1.10;;;11.30;82.50;;;;;;5093507;28;20458;-73
2023/11/05 05:38:48;;;;;;;3.50;1.20;;;11.20;83.80;;;;;;5094139;28;20462;-73
2023/11/05 05:41:14;;;;;;;2.67;1.33;;;11.10;84.80;;;;;;5094186;28;20392;-73
2023/11/05 05:43:39;;;;;;;1.92;1.15;;;11.30;83.50;;;;;;5094216;28;20390;-73
2023/11/05 05:46:05;;;;;;;4.47;1.50;;;11.30;82.50;;;;;;5094186;28;20472;-73
2023/11/05 05:48:31;;;;;;;2.60;1.15;;;11.30;82.00;;;;;;5099335;28;20416;-73
2023/11/05 05:50:57;;;;;;;2.42;1.30;;;11.30;82.30;;;;;;5094791;28;20406;-71
2023/11/05 05:53:23;;;;;;;1.70;1.00;;;11.30;82.10;;;;;;5092078;28;20455;-73
2023/11/05 05:55:49;;;;;;;1.77;0.90;;;11.40;78.20;;;;;;5093446;28;20378;-72
2023/11/05 05:58:16;;;;;;;1.95;1.10;;;11.50;75.60;;;;;;5093143;28;20507;-74
2023/11/05 06:00:45;;;;;;;2.30;0.90;;;11.40;76.60;;;;;;5092985;28;20414;-73
2023/11/05 06:03:10;;;;;;;1.75;0.80;;;11.40;76.60;;;;;;5092814;28;20856;-73
2023/11/05 06:05:36;;;;;;;1.20;0.80;;;11.50;77.20;;;;;;5092913;28;20385;-73
2023/11/05 06:08:02;;;;;;;3.75;0.95;;;11.40;77.40;;;;;;5074522;28;20447;-74
2023/11/05 06:10:28;;;;;;;1.70;0.70;;;11.40;78.30;;;;;;5092673;28;20416;-73
2023/11/05 06:12:54;;;;;;;2.50;0.90;;;11.40;77.90;;;;;;5092796;28;20382;-73
2023/11/05 06:15:19;;;;;;;1.08;0.70;;;11.40;77.70;;;;;;5092777;28;20381;-72
2023/11/05 06:17:46;;;;;;;1.30;0.70;;;11.30;79.20;;;;;;5092471;28;20390;-74
2023/11/05 06:20:11;;;;;;;2.20;1.00;;;11.20;80.10;;;;;;5092959;28;20752;-71
2023/11/05 06:22:37;;;;;;;1.90;1.20;;;11.40;79.20;;;;;;5092834;28;20477;-72
2023/11/05 06:25:03;;;;;;;1.00;0.80;;;11.30;79.30;;;;;;5093157;28;20374;-72
2023/11/05 06:27:29;;;;;;;3.17;0.90;;;11.20;81.00;;;;;;5093436;28;20864;-72
2023/11/05 06:29:56;;;;;;;2.90;0.87;;;11.30;80.50;;;;;;5074858;28;20421;-74
2023/11/05 06:32:22;;;;;;;1.50;0.80;;;11.30;80.10;;;;;;5092576;28;20417;-75
2023/11/05 06:34:48;;;;;;;1.88;0.90;;;11.20;81.30;;;;;;5092843;28;20697;-74
2023/11/05 06:37:13;;;;;;;1.90;1.00;;;11.20;81.70;;;;;;5092460;28;20382;-73
2023/11/05 06:39:40;;;;;;;1.30;0.80;;;11.20;79.50;;;;;;5092666;28;20417;-74
2023/11/05 06:42:06;;;;;;;3.42;0.80;;;11.20;78.90;;;;;;5092697;28;20397;-72
2023/11/05 06:44:32;;;;;;;1.60;0.82;;;11.30;76.80;;;;;;5092746;28;20733;-73
2023/11/05 06:46:58;;;;;;;3.00;0.80;;;11.40;75.90;;;;;;5092464;28;20397;-74
2023/11/05 06:49:23;;;;;;;2.10;1.10;;;11.40;76.90;;;;;;5092544;28;20402;-74
2023/11/05 06:51:49;;;;;;;2.20;1.10;;;11.40;76.20;;;;;;5092418;28;20906;-74
2023/11/05 06:54:14;;;;;;;1.80;1.10;;;11.40;76.80;;;;;;5078704;28;20717;-74
2023/11/05 06:56:40;;;;;;;2.60;0.90;;;11.30;77.10;;;;;;5093506;28;20390;-74
2023/11/05 06:59:07;;;;;;;4.32;1.00;;;11.40;77.00;;;;;;5091596;28;20396;-75
2023/11/05 07:01:33;;;;;;;1.70;1.00;;;11.40;77.50;;;;;;5091150;28;20787;-73
2023/11/05 07:03:59;;;;;;;1.00;0.60;;;11.40;77.10;;;;;;5091212;28;20860;-73
2023/11/05 07:06:26;;;;;;;4.05;0.90;;;11.40;76.10;;;;;;5092625;28;20389;-75
2023/11/05 07:08:51;;;;;;;2.23;1.00;;;11.40;76.60;;;;;;5091706;28;20393;-74
2023/11/05 07:11:17;;;;;;;2.05;1.00;;;11.30;77.90;;;;;;5091422;28;20401;-75
2023/11/05 07:13:43;;;;;;;2.03;1.10;;;11.30;77.60;;;;;;5091606;28;20431;-75
2023/11/05 07:16:09;;;;;;;1.40;1.00;;;11.40;77.60;;;;;;5091540;28;20381;-74
2023/11/05 07:18:35;;;;;;;2.35;0.82;;;11.40;77.20;;;;;;5092265;28;20457;-74
2023/11/05 07:21:00;;;;;;;1.42;1.00;;;11.40;77.90;;;;;;5096106;28;20374;-74
2023/11/05 07:23:26;;;;;;;1.77;0.82;;;11.50;78.00;;;;;;5099580;28;20412;-74
2023/11/05 07:25:51;;;;;;;2.17;1.00;;;11.50;77.90;;;;;;5096858;28;20374;-74
2023/11/05 07:28:17;;;;;;;1.83;1.20;;;11.60;76.40;;;;;;5096968;28;20409;-75
2023/11/05 07:30:43;;;;;;;3.60;1.00;;;11.70;75.70;;;;;;5090928;28;20409;-74
2023/11/05 07:33:10;;;;;;;1.20;1.07;;;11.70;75.30;;;;;;5072664;28;20378;-73
2023/11/05 07:35:36;;;;;;;4.68;1.38;;;11.70;77.50;;;;;;5090742;28;20398;-74
2023/11/05 07:38:02;;;;;;;1.65;0.90;;;11.60;77.40;;;;;;5090867;28;20432;-74
2023/11/05 07:40:27;;;;;;;2.08;1.00;;;11.80;78.10;;;;;;5091052;28;20382;-72
2023/11/05 07:42:53;;;;;;;2.10;1.20;;;11.70;78.30;;;;;;5090560;28;20392;-73
2023/11/05 07:45:19;;;;;;;3.10;1.00;;;11.60;79.20;;;;;;5090970;28;20397;-73
2023/11/05 07:47:45;;;;;;;3.30;1.10;;;11.60;80.80;;;;;;5090519;28;20823;-73
2023/11/05 07:50:12;;;;;;;4.30;1.30;;;11.60;81.00;;;;;;5094571;28;20382;-74
2023/11/05 07:52:40;;;;;;;3.20;1.48;;;11.60;81.00;;;;;;5091939;28;20389;-73
2023/11/05 07:55:12;;;;;;;3.80;1.30;;;11.60;82.60;;;;;;5091252;28;20439;-73
2023/11/05 07:57:38;;;;;;;2.63;1.30;;;11.70;80.70;;;;;;5090656;28;20372;-72
2023/11/05 08:00:05;;;;;;;2.67;1.10;;;11.70;81.10;;;;;;5091057;28;20931;-74
2023/11/05 08:02:31;;;;;;;1.60;1.10;;;11.70;81.60;;;;;;5091024;28;20406;-73
2023/11/05 08:04:56;;;;;;;2.40;1.10;;;11.70;82.40;;;;;;5091985;28;20416;-73
2023/11/05 08:07:24;;;;;;;4.07;1.10;;;11.80;81.80;;;;;;5090961;28;20374;-74
2023/11/05 08:09:52;;;;;;;4.50;1.00;;;11.80;81.50;;;;;;5092992;28;20733;-74
2023/11/05 08:12:18;;;;;;;2.75;0.95;;;11.90;79.70;;;;;;5094870;28;20370;-75
2023/11/05 08:14:43;;;;;;;3.20;1.10;;;11.90;80.00;;;;;;5091734;28;20429;-73
2023/11/05 08:17:09;;;;;;;1.50;1.00;;;11.90;81.10;;;;;;5093553;28;20370;-74
2023/11/05 08:19:34;;;;;;;1.83;1.10;;;11.90;78.90;;;;;;5096365;28;20450;-74
2023/11/05 08:22:00;;;;;;;2.47;1.20;;;11.90;79.40;;;;;;5094992;28;20382;-74
2023/11/05 08:24:26;;;;;;;3.40;1.20;;;11.90;78.80;;;;;;5094743;28;20924;-74
2023/11/05 08:26:51;;;;;;;2.60;1.30;;;12.10;76.90;;;;;;5094439;28;20473;-75
2023/11/05 08:29:18;;;;;;;3.00;1.40;;;12.00;77.30;;;;;;5094092;28;20404;-74
2023/11/05 08:31:43;;;;;;;2.63;1.20;;;11.90;78.90;;;;;;5075727;28;20416;-73
2023/11/05 08:34:09;;;;;;;2.08;1.42;;;11.90;80.60;;;;;;5094194;28;20386;-75
2023/11/05 08:36:34;;;;;;;3.10;1.20;;;11.90;80.20;;;;;;5076042;28;20389;-73
2023/11/05 08:39:02;;;;;;;2.55;1.30;;;12.00;80.50;;;;;;5095418;28;20401;-73
2023/11/05 08:41:27;;;;;;;2.45;1.20;;;12.00;80.40;;;;;;5095519;28;20388;-73
2023/11/05 08:43:53;;;;;;;2.40;1.80;;;12.10;80.90;;;;;;5093890;28;20397;-74
2023/11/05 08:46:18;;;;;;;4.15;1.70;;;12.20;80.90;;;;;;5094286;28;20459;-74
2023/11/05 08:48:44;;;;;;;2.55;1.40;;;12.30;79.70;;;;;;5095116;28;20425;-74
2023/11/05 08:51:09;;;;;;;5.60;1.30;;;12.30;77.80;;;;;;5091241;28;20393;-72
2023/11/05 08:53:35;;;;;;;2.47;1.37;;;12.60;74.70;;;;;;5094769;28;20429;-72
2023/11/05 08:56:01;;;;;;;2.40;1.10;;;12.60;73.80;;;;;;5094990;28;20394;-72
2023/11/05 08:58:27;;;;;;;2.40;1.40;;;12.50;75.30;;;;;;5093872;28;20447;-71
2023/11/05 09:00:56;;;;;;;2.70;1.00;;;12.60;75.00;;;;;;5081540;28;20398;-70
2023/11/05 09:03:25;;;;;;;2.00;1.20;;;12.80;73.00;;;;;;5092210;28;20478;-71
2023/11/05 09:05:51;;;;;;;2.70;1.20;;;12.90;72.00;;;;;;5091530;28;20394;-72
2023/11/05 09:08:16;;;;;;;2.97;1.20;;;13.20;68.60;;;;;;5093193;28;20401;-72
2023/11/05 09:10:42;;;;;;;3.35;1.38;;;13.30;65.70;;;;;;5093382;28;20899;-71
2023/11/05 09:13:07;;;;;;;3.40;1.30;;;13.50;64.90;;;;;;5100065;28;20524;-72
2023/11/05 09:15:35;;;;;;;3.87;1.40;;;13.60;60.50;;;;;;5092030;28;20390;-72
2023/11/05 09:18:00;;;;;;;4.50;1.60;;;13.70;58.60;;;;;;5083567;28;20418;-71
2023/11/05 09:20:26;;;;;;;4.00;1.43;;;13.70;58.40;;;;;;5072930;28;20855;-72
2023/11/05 09:22:52;;;;;;;2.20;1.30;;;14.00;55.30;;;;;;5086913;28;20394;-72
2023/11/05 09:25:18;;;;;;;3.83;1.20;;;14.10;54.70;;;;;;5084733;28;20441;-70
2023/11/05 09:27:44;;;;;;;2.47;1.17;;;14.10;54.50;;;;;;5088821;28;20467;-72
2023/11/05 09:30:14;;;;;;;2.85;1.40;;;14.20;55.00;;;;;;5092660;28;20883;-71
2023/11/05 09:32:42;;;;;;;3.10;1.30;;;14.10;55.00;;;;;;5072864;28;20387;-71
2023/11/05 09:35:12;;;;;;;3.78;1.48;;;14.00;54.50;;;;;;5087965;28;20412;-72
2023/11/05 09:37:44;;;;;;;5.07;1.30;;;14.00;54.70;;;;;;5092678;28;20932;-72
2023/11/05 09:40:14;;;;;;;2.80;1.30;;;13.80;56.60;;;;;;5092807;28;20425;-72
2023/11/05 09:42:52;;;;;;;2.88;1.60;;;13.50;57.80;;;;;;5091772;28;20626;-72
2023/11/05 09:45:19;;;;;;;5.50;1.60;;;13.30;60.60;;;;;;5091121;28;20435;-72
2023/11/05 09:47:45;;;;;;;5.55;1.80;;;13.20;61.80;;;;;;5089776;28;20868;-71
2023/11/05 09:50:12;;;;;;;3.47;1.52;;;13.10;63.60;;;;;;5091005;28;20394;-70
2023/11/05 09:52:41;;;;;;;4.00;1.40;;;13.00;66.30;;;;;;5091857;28;20443;-72
2023/11/05 09:55:10;;;;;;;3.38;1.48;;;13.00;65.80;;;;;;5090988;28;20398;-70
2023/11/05 09:57:37;;;;;;;2.63;1.60;;;12.90;70.00;;;;;;5090326;28;20374;-71
2023/11/05 10:00:09;;;;;;;3.97;1.33;;;12.80;70.80;;;;;;5090881;28;20434;-71
2023/11/05 10:03:13;;;;;;;2.83;1.30;;;12.90;70.20;;;;;;5090682;28;20386;-71
2023/11/05 10:05:43;;;;;;;5.93;1.50;;;13.00;67.60;;;;;;5028559;28;20889;-75
2023/11/05 10:08:10;;;;;;;8.60;1.70;;;12.90;68.50;;;;;;5028605;28;20924;-72
2023/11/05 10:10:38;;;;;;;3.80;1.80;;;12.90;65.30;;;;;;5049844;28;20415;-71
2023/11/05 10:13:06;;;;;;;4.32;1.75;;;12.90;67.20;;;;;;5077867;28;20379;-70
2023/11/05 10:15:36;;;;;;;9.43;4.00;;;13.00;65.80;;;;;;5093929;28;20482;-73
2023/11/05 10:18:03;;;;;;;4.97;1.90;;;13.10;63.80;;;;;;5097708;28;20550;-70
2023/11/05 10:20:32;;;;;;;3.78;2.00;;;13.10;63.00;;;;;;5090837;28;20466;-71
2023/11/05 10:23:06;;;;;;;3.60;1.60;;;13.10;64.10;;;;;;5089155;28;20397;-71
2023/11/05 10:25:34;;;;;;;7.07;1.58;;;13.20;61.90;;;;;;5086158;28;20765;-70
2023/11/05 10:28:00;;;;;;;3.90;1.70;;;13.20;62.30;;;;;;5089510;28;20402;-73
2023/11/05 10:30:26;;;;;;;1.90;1.20;;;13.20;61.80;;;;;;5090154;28;20454;-70
2023/11/05 10:32:53;;;;;;;2.50;1.00;;;13.20;61.00;;;;;;5089498;28;20465;-73
2023/11/05 10:35:27;;;;;;;4.75;1.40;;;13.30;60.00;;;;;;5090434;28;20398;-71
2023/11/05 10:37:53;;;;;;;1.90;1.10;;;13.40;59.00;;;;;;5073225;28;20425;-70
2023/11/05 10:40:19;;;;;;;56.80;29.95;;;13.40;57.50;;;;;;5089852;28;20884;-70
2023/11/05 10:42:46;;;;;;;20.40;7.87;;;13.40;56.90;;;;;;5089356;28;20405;-73
2023/11/05 10:45:16;;;;;;;3.20;1.40;;;13.30;56.80;;;;;;5089143;28;20428;-71
2023/11/05 10:47:42;;;;;;;3.10;1.40;;;13.30;57.60;;;;;;5089416;28;20489;-69
2023/11/05 10:50:12;;;;;;;2.88;1.20;;;13.30;57.80;;;;;;5089453;28;20493;-72
2023/11/05 10:52:41;;;;;;;3.42;1.60;;;13.20;57.70;;;;;;5089783;28;20385;-72
2023/11/05 10:55:11;;;;;;;3.90;1.50;;;13.20;57.90;;;;;;5089680;28;20382;-72
2023/11/05 10:57:49;;;;;;;4.05;1.50;;;13.40;58.20;;;;;;5089361;28;20405;-72
2023/11/05 11:00:24;;;;;;;6.45;1.85;;;13.50;56.70;;;;;;5088855;28;20386;-71
2023/11/05 11:02:51;;;;;;;3.83;1.50;;;13.50;55.80;;;;;;5089659;28;20386;-72
2023/11/05 11:05:20;;;;;;;2.93;1.70;;;13.40;57.20;;;;;;5089964;28;20542;-71
2023/11/05 11:07:46;;;;;;;3.50;1.50;;;13.50;56.30;;;;;;5089707;28;20792;-72
2023/11/05 11:10:20;;;;;;;4.15;2.20;;;13.70;55.90;;;;;;5068544;28;20479;-73
2023/11/05 11:12:45;;;;;;;4.85;1.92;;;13.70;56.10;;;;;;5078409;28;20437;-72
2023/11/05 11:15:35;;;;;;;2.90;1.85;;;13.80;54.60;;;;;;5071186;28;20422;-72
2023/11/05 11:18:05;;;;;;;4.43;1.80;;;13.70;55.20;;;;;;5079862;28;20457;-70
2023/11/05 11:20:34;;;;;;;5.07;1.73;;;13.70;54.30;;;;;;5076861;28;20395;-74
2023/11/05 11:23:03;;;;;;;4.82;2.00;;;13.60;56.10;;;;;;5071717;28;20403;-74
2023/11/05 11:25:33;;;;;;;6.00;1.63;;;13.60;56.00;;;;;;5081457;28;20390;-71
2023/11/05 11:27:59;;;;;;;4.72;1.80;;;13.50;57.20;;;;;;5091175;28;20764;-72
2023/11/05 11:30:25;;;;;;;5.73;2.50;;;13.40;60.40;;;;;;5082039;28;20401;-72
2023/11/05 11:32:53;;;;;;;5.32;1.80;;;13.20;64.70;;;;;;5070688;28;20388;-71
2023/11/05 11:35:19;;;;;;;3.13;1.63;;;13.10;64.80;;;;;;5089257;28;20415;-68
2023/11/05 11:37:45;;;;;;;3.70;1.70;;;12.90;65.20;;;;;;5091076;28;20461;-71
2023/11/05 11:40:12;;;;;;;5.87;1.90;;;12.80;68.30;;;;;;5086787;28;20383;-73
2023/11/05 11:42:38;;;;;;;3.90;1.60;;;12.80;69.30;;;;;;5090717;28;20951;-71
2023/11/05 11:45:05;;;;;;;3.22;1.90;;;12.80;69.50;;;;;;5091197;28;20382;-74
2023/11/05 11:47:34;;;;;;;3.97;2.05;;;12.70;69.30;;;;;;5091147;28;20837;-73
2023/11/05 11:50:06;;;;;;;5.03;2.10;;;12.60;73.50;;;;;;5092284;28;20468;-73
2023/11/05 11:52:46;;;;;;;5.95;2.17;;;12.60;71.20;;;;;;5076365;28;20379;-72
2023/11/05 11:55:12;;;;;;;2.45;1.90;;;12.50;72.90;;;;;;5074681;28;20380;-73
2023/11/05 11:57:38;;;;;;;6.10;3.10;;;12.60;70.10;;;;;;5074200;28;20375;-72
2023/11/05 12:00:08;;;;;;;4.90;2.00;;;12.70;69.40;;;;;;5074870;28;20429;-72
2023/11/05 12:02:34;;;;;;;5.95;1.80;;;12.70;67.70;;;;;;5072046;28;20402;-73
2023/11/05 12:05:00;;;;;;;3.38;1.70;;;12.70;70.60;;;;;;5073348;28;20376;-73
2023/11/05 12:07:48;;;;;;;4.38;1.70;;;12.70;67.30;;;;;;5072427;28;20422;-73
2023/11/05 12:10:14;;;;;;;3.47;1.90;;;12.80;64.40;;;;;;5072465;28;20734;-73
2023/11/05 12:12:42;;;;;;;5.25;1.90;;;12.80;63.70;;;;;;5071047;28;20769;-74
2023/11/05 12:15:11;;;;;;;1.92;1.70;;;13.00;61.60;;;;;;5071528;28;20422;-72
2023/11/05 12:17:37;;;;;;;7.25;2.10;;;13.10;60.30;;;;;;5071606;28;20953;-72
2023/11/05 12:20:04;;;;;;;4.18;1.85;;;13.10;58.40;;;;;;5074716;28;20415;-74
2023/11/05 12:22:30;;;;;;;5.68;2.40;;;13.00;60.50;;;;;;5073267;28;20379;-73
2023/11/05 12:25:01;;;;;;;4.00;2.40;;;12.90;58.00;;;;;;5072065;28;20372;-73
2023/11/05 12:27:26;;;;;;;4.90;2.45;;;12.80;61.20;;;;;;5073355;28;20395;-73
2023/11/05 12:29:52;;;;;;;8.43;3.33;;;12.70;61.80;;;;;;5074377;28;20407;-74
2023/11/05 12:32:36;;;;;;;8.52;3.03;;;12.70;61.70;;;;;;5072037;28;20462;-73
2023/11/05 12:35:02;;;;;;;4.68;2.70;;;12.70;62.80;;;;;;5075326;28;20376;-72
2023/11/05 12:37:27;;;;;;;4.90;2.80;;;12.70;62.30;;;;;;5073959;28;20367;-72
2023/11/05 12:39:53;;;;;;;6.77;3.10;;;12.80;61.90;;;;;;5075234;28;20386;-72
2023/11/05 12:42:19;;;;;;;6.82;3.10;;;12.90;61.80;;;;;;5071854;28;20387;-72